createdAt,value
2023-01-13T00:00:30.543Z,98658.29
2023-01-13T00:03:18.715Z,98653.59
2023-01-13T00:05:46.745Z,98648.61
2023-01-13T00:08:14.743Z,98644.89
2023-01-13T00:10:46.496Z,98641.81
2023-01-13T00:13:15.106Z,98646.41
2023-01-13T00:15:43.363Z,98645.39
2023-01-13T00:18:11.390Z,98651.73
2023-01-13T00:20:39.382Z,98651.53
2023-01-13T00:23:07.385Z,98648.27
2023-01-13T00:25:35.465Z,98645.79
2023-01-13T00:28:03.633Z,98638.14
2023-01-13T00:30:31.609Z,98638.72
2023-01-13T00:32:59.853Z,98630.73
2023-01-13T00:35:27.881Z,98629.02
2023-01-13T00:37:55.962Z,98627.59
2023-01-13T00:40:24.049Z,98629.92
2023-01-13T00:43:10.958Z,98632.21
2023-01-13T00:45:39.187Z,98636.02
2023-01-13T00:48:07.354Z,98641.50
2023-01-13T00:50:35.810Z,98645.83
2023-01-13T00:53:04.088Z,98643.55
2023-01-13T00:55:33.123Z,98642.61
2023-01-13T00:58:03.814Z,98642.22
2023-01-13T01:00:35.037Z,98636.73
2023-01-13T01:03:03.156Z,98630.75
2023-01-13T01:05:33.452Z,98628.66
2023-01-13T01:08:01.870Z,98623.42
2023-01-13T01:10:30.018Z,98614.98
2023-01-13T01:12:58.075Z,98609.21
2023-01-13T01:15:26.837Z,98603.49
2023-01-13T01:17:54.925Z,98599.67
2023-01-13T01:20:23.046Z,98594.52
2023-01-13T01:22:51.200Z,98588.59
2023-01-13T01:25:19.450Z,98585.35
2023-01-13T01:27:47.375Z,98582.61
2023-01-13T01:30:15.870Z,98581.87
2023-01-13T01:32:43.975Z,98578.70
2023-01-13T01:35:12.019Z,98577.52
2023-01-13T01:37:40.321Z,98575.48
2023-01-13T01:40:09.078Z,98572.38
2023-01-13T01:42:56.011Z,98570.02
2023-01-13T01:45:25.151Z,98569.36
2023-01-13T01:47:56.564Z,98565.40
2023-01-13T01:50:24.903Z,98565.11
2023-01-13T01:52:56.476Z,98566.39
2023-01-13T01:55:28.019Z,98567.13
2023-01-13T01:58:04.804Z,98566.14
2023-01-13T02:05:19.872Z,98562.14
2023-01-13T02:07:49.810Z,98564.55
2023-01-13T02:10:19.812Z,98567.52
2023-01-13T02:12:48.908Z,98562.30
2023-01-13T02:15:18.983Z,98561.54
2023-01-13T02:17:50.171Z,98559.61
2023-01-13T02:20:24.248Z,98559.37
2023-01-13T02:22:58.337Z,98557.95
2023-01-13T02:25:49.076Z,98557.70
2023-01-13T02:28:31.859Z,98553.52
2023-01-13T02:31:21.975Z,98548.45
2023-01-13T02:34:15.158Z,98545.46
2023-01-13T02:36:55.962Z,98543.95
2023-01-13T02:39:24.413Z,98545.41
2023-01-13T02:42:37.356Z,98542.94
2023-01-13T02:45:10.564Z,98539.76
2023-01-13T02:47:39.679Z,98537.27
2023-01-13T02:50:11.035Z,98532.52
2023-01-13T02:52:48.993Z,98535.53
2023-01-13T02:55:19.203Z,98533.82
2023-01-13T02:57:48.553Z,98533.45
2023-01-13T03:00:17.023Z,98537.66
2023-01-13T03:02:45.201Z,98540.41
2023-01-13T03:05:15.136Z,98536.90
2023-01-13T03:07:49.241Z,98531.45
2023-01-13T03:10:17.255Z,98528.05
2023-01-13T03:12:59.844Z,98524.04
2023-01-13T03:15:30.697Z,98516.24
2023-01-13T03:18:22.000Z,98513.62
2023-01-13T03:20:56.584Z,98505.48
2023-01-13T03:23:38.200Z,98509.73
2023-01-13T03:26:15.196Z,98508.42
2023-01-13T03:28:49.223Z,98506.84
2023-01-13T03:31:19.987Z,98502.49
2023-01-13T03:33:57.718Z,98499.31
2023-01-13T03:36:28.044Z,98499.14
2023-01-13T03:39:03.183Z,98494.52
2023-01-13T03:41:38.032Z,98494.48
2023-01-13T03:44:24.535Z,98488.85
2023-01-13T03:47:16.113Z,98486.83
2023-01-13T03:49:53.017Z,98486.14
2023-01-13T03:52:25.171Z,98482.66
2023-01-13T03:54:59.853Z,98485.52
2023-01-13T03:57:31.237Z,98487.01
2023-01-13T04:00:00.509Z,98488.64
2023-01-13T04:02:35.440Z,98493.55
2023-01-13T04:05:06.823Z,98493.41
2023-01-13T04:07:37.715Z,98490.27
2023-01-13T04:10:07.841Z,98480.24
2023-01-13T04:12:57.624Z,98483.00
2023-01-13T04:15:28.157Z,98484.10
2023-01-13T04:18:02.217Z,98482.76
2023-01-13T04:20:30.740Z,98486.55
2023-01-13T04:22:58.709Z,98482.71
2023-01-13T04:25:26.597Z,98483.36
2023-01-13T04:27:54.843Z,98484.51
2023-01-13T04:30:22.748Z,98482.99
2023-01-13T04:32:50.963Z,98479.31
2023-01-13T04:35:19.185Z,98482.47
2023-01-13T04:37:47.368Z,98483.65
2023-01-13T04:40:15.687Z,98484.55
2023-01-13T04:42:44.742Z,98486.80
2023-01-13T04:45:12.758Z,98490.41
2023-01-13T04:47:42.011Z,98488.55
2023-01-13T04:50:10.460Z,98486.96
2023-01-13T04:52:38.692Z,98492.13
2023-01-13T04:55:07.320Z,98490.55
2023-01-13T04:57:37.908Z,98490.08
2023-01-13T05:00:06.547Z,98486.39
2023-01-13T05:02:34.438Z,98485.77
2023-01-13T05:05:02.607Z,98487.52
2023-01-13T05:07:30.513Z,98485.66
2023-01-13T05:09:58.523Z,98480.02
2023-01-13T05:12:45.228Z,98481.77
2023-01-13T05:15:33.065Z,98485.89
2023-01-13T05:18:01.972Z,98486.52
2023-01-13T05:20:29.912Z,98484.30
2023-01-13T05:23:16.978Z,98490.36
2023-01-13T05:25:47.059Z,98487.98
2023-01-13T05:28:14.988Z,98489.05
2023-01-13T05:30:44.352Z,98494.17
2023-01-13T05:33:13.629Z,98495.55
2023-01-13T05:35:42.789Z,98496.41
2023-01-13T05:38:12.179Z,98501.81
2023-01-13T05:40:59.872Z,98502.30
2023-01-13T05:43:28.287Z,98501.61
2023-01-13T05:46:04.886Z,98502.51
2023-01-13T05:48:35.004Z,98497.84
2023-01-13T05:51:04.667Z,98499.08
2023-01-13T05:53:32.631Z,98499.08
2023-01-13T05:56:00.692Z,98503.23
2023-01-13T05:58:28.673Z,98502.05
2023-01-13T06:01:06.141Z,98503.86
2023-01-13T06:03:34.507Z,98507.78
2023-01-13T06:06:04.085Z,98505.25
2023-01-13T06:08:32.780Z,98503.81
2023-01-13T06:11:01.032Z,98506.07
2023-01-13T06:13:29.141Z,98508.73
2023-01-13T06:16:00.904Z,98510.16
2023-01-13T06:18:29.170Z,98509.66
2023-01-13T06:20:57.064Z,98510.08
2023-01-13T06:23:24.985Z,98509.37
2023-01-13T06:25:55.772Z,98510.02
2023-01-13T06:28:23.711Z,98510.77
2023-01-13T06:30:56.068Z,98508.59
2023-01-13T06:33:27.932Z,98508.47
2023-01-13T06:35:58.584Z,98512.85
2023-01-13T06:38:29.715Z,98517.32
2023-01-13T06:40:58.497Z,98513.80
2023-01-13T06:43:26.364Z,98508.55
2023-01-13T06:45:55.412Z,98512.81
2023-01-13T06:48:25.570Z,98510.12
2023-01-13T06:50:53.796Z,98509.00
2023-01-13T06:53:21.742Z,98512.04
2023-01-13T06:55:49.725Z,98505.89
2023-01-13T06:58:17.923Z,98503.18
2023-01-13T07:00:51.472Z,98504.13
2023-01-13T07:03:20.046Z,98503.07
2023-01-13T07:05:52.406Z,98502.00
2023-01-13T07:08:20.550Z,98505.88
2023-01-13T07:10:48.691Z,98504.25
2023-01-13T07:13:35.604Z,98502.48
2023-01-13T07:16:05.722Z,98502.57
2023-01-13T07:18:34.445Z,98499.74
2023-01-13T07:21:04.012Z,98498.80
2023-01-13T07:23:34.587Z,98495.64
2023-01-13T07:26:02.506Z,98494.58
2023-01-13T07:28:30.871Z,98496.42
2023-01-13T07:30:58.794Z,98496.06
2023-01-13T07:33:27.111Z,98496.17
2023-01-13T07:35:58.973Z,98497.68
2023-01-13T07:39:47.676Z,98494.50
2023-01-13T07:42:34.852Z,98495.56
2023-01-13T07:45:04.576Z,98496.09
2023-01-13T07:47:32.887Z,98498.13
2023-01-13T07:50:00.931Z,98497.65
2023-01-13T07:52:29.029Z,98503.13
2023-01-13T07:54:57.163Z,98503.04
2023-01-13T07:57:25.225Z,98499.44
2023-01-13T07:59:53.299Z,98501.77
2023-01-13T08:02:21.870Z,98498.57
2023-01-13T08:04:50.067Z,98498.02
2023-01-13T08:07:18.199Z,98496.25
2023-01-13T08:09:46.407Z,98495.78
2023-01-13T08:12:32.987Z,98495.37
2023-01-13T08:15:01.452Z,98499.34
2023-01-13T08:17:29.579Z,98498.30
2023-01-13T08:19:57.739Z,98502.40
2023-01-13T08:22:25.899Z,98501.36
2023-01-13T08:24:53.936Z,98502.39
2023-01-13T08:27:22.166Z,98506.08
2023-01-13T08:29:50.367Z,98508.49
2023-01-13T08:32:18.438Z,98509.84
2023-01-13T08:34:46.626Z,98515.60
2023-01-13T08:37:14.928Z,98509.49
2023-01-13T08:39:42.997Z,98513.27
2023-01-13T08:42:11.272Z,98511.06
2023-01-13T08:44:39.433Z,98513.52
2023-01-13T08:47:07.551Z,98508.59
2023-01-13T08:49:35.646Z,98510.91
2023-01-13T08:52:04.836Z,98515.36
2023-01-13T08:54:32.843Z,98513.27
2023-01-13T08:57:03.519Z,98512.98
2023-01-13T08:59:31.954Z,98511.72
2023-01-13T09:02:00.649Z,98510.64
2023-01-13T09:04:29.724Z,98510.69
2023-01-13T09:06:57.900Z,98511.42
2023-01-13T09:09:27.758Z,98518.37
2023-01-13T09:12:14.741Z,98519.98
2023-01-13T09:14:42.848Z,98514.15
2023-01-13T09:17:11.316Z,98513.76
2023-01-13T09:19:39.384Z,98515.50
2023-01-13T09:22:08.059Z,98514.55
2023-01-13T09:24:36.079Z,98513.61
2023-01-13T09:27:04.342Z,98517.68
2023-01-13T09:29:33.351Z,98511.84
2023-01-13T09:32:01.407Z,98510.20
2023-01-13T09:34:48.312Z,98509.20
2023-01-13T09:37:16.771Z,98500.89
2023-01-13T09:39:44.753Z,98497.35
2023-01-13T09:42:58.022Z,98497.30
2023-01-13T09:45:31.677Z,98490.02
2023-01-13T09:48:16.814Z,98494.66
2023-01-13T09:51:16.903Z,98498.68
2023-01-13T09:53:55.843Z,98494.52
2023-01-13T09:56:25.547Z,98492.09
2023-01-13T09:58:53.638Z,98489.66
2023-01-13T10:01:34.899Z,98487.78
2023-01-13T10:04:10.388Z,98484.35
2023-01-13T10:06:42.690Z,98484.30
2023-01-13T10:09:30.436Z,98481.98
2023-01-13T10:12:19.260Z,98477.02
2023-01-13T10:14:54.531Z,98473.23
2023-01-13T10:17:32.903Z,98473.83
2023-01-13T10:20:18.625Z,98471.25
2023-01-13T10:23:00.654Z,98466.40
2023-01-13T10:25:47.520Z,98468.40
2023-01-13T10:28:19.432Z,98467.67
2023-01-13T10:30:48.091Z,98472.14
2023-01-13T10:33:26.331Z,98468.18
2023-01-13T10:36:03.744Z,98465.27
2023-01-13T10:38:46.944Z,98462.41
2023-01-13T10:41:15.296Z,98452.19
2023-01-13T10:44:04.811Z,98453.66
2023-01-13T10:46:35.949Z,98453.11
2023-01-13T10:49:23.331Z,98454.16
2023-01-13T10:51:51.762Z,98453.84
2023-01-13T10:54:22.910Z,98455.80
2023-01-13T10:57:10.908Z,98449.83
2023-01-13T10:59:38.904Z,98450.39
2023-01-13T11:02:26.835Z,98446.38
2023-01-13T11:04:56.365Z,98445.90
2023-01-13T11:07:31.940Z,98444.75
2023-01-13T11:10:09.580Z,98441.84
2023-01-13T11:13:16.091Z,98437.83
2023-01-13T11:16:01.709Z,98441.63
2023-01-13T11:19:12.089Z,98442.41
2023-01-13T11:22:07.150Z,98450.52
2023-01-13T11:24:51.437Z,98445.77
2023-01-13T11:27:42.573Z,98439.34
2023-01-13T11:30:26.325Z,98439.88
2023-01-13T11:33:15.806Z,98435.36
2023-01-13T11:35:59.261Z,98431.20
2023-01-13T11:39:03.064Z,98432.85
2023-01-13T11:41:43.583Z,98430.47
2023-01-13T11:44:25.663Z,98428.99
2023-01-13T11:46:53.936Z,98432.34
2023-01-13T11:49:33.385Z,98430.14
2023-01-13T11:52:14.346Z,98428.82
2023-01-13T11:54:46.323Z,98422.41
2023-01-13T11:57:26.486Z,98424.14
2023-01-13T12:00:16.855Z,98427.12
2023-01-13T12:02:57.191Z,98429.99
2023-01-13T12:05:39.703Z,98426.73
2023-01-13T12:08:17.196Z,98427.48
2023-01-13T12:11:04.166Z,98426.41
2023-01-13T12:13:45.428Z,98426.96
2023-01-13T12:16:19.993Z,98423.35
2023-01-13T12:19:02.684Z,98415.63
2023-01-13T12:21:38.794Z,98418.24
2023-01-13T12:24:28.429Z,98415.42
2023-01-13T12:27:04.665Z,98412.06
2023-01-13T12:29:38.586Z,98410.21
2023-01-13T12:32:19.165Z,98406.11
2023-01-13T12:34:50.173Z,98402.30
2023-01-13T12:37:48.103Z,98404.55
2023-01-13T12:40:34.315Z,98407.58
2023-01-13T12:43:24.283Z,98407.14
2023-01-13T12:45:52.775Z,98405.08
2023-01-13T12:48:46.784Z,98401.35
2023-01-13T12:51:29.136Z,98409.20
2023-01-13T12:53:57.832Z,98406.30
2023-01-13T12:56:38.346Z,98406.99
2023-01-13T12:59:19.207Z,98413.59
2023-01-13T13:02:10.992Z,98407.62
2023-01-13T13:04:51.943Z,98407.60
2023-01-13T13:07:41.830Z,98411.17
2023-01-13T13:10:37.597Z,98417.89
2023-01-13T13:13:40.104Z,98418.38
2023-01-13T13:16:26.985Z,98418.63
2023-01-13T13:19:18.185Z,98415.43
2023-01-13T13:22:18.178Z,98409.72
2023-01-13T13:24:49.336Z,98412.81
2023-01-13T13:27:31.926Z,98416.84
2023-01-13T13:30:31.240Z,98416.11
2023-01-13T13:33:23.722Z,98417.24
2023-01-13T13:36:36.607Z,98424.48
2023-01-13T13:39:32.457Z,98430.77
2023-01-13T13:42:31.297Z,98429.35
2023-01-13T13:45:21.442Z,98427.79
2023-01-13T13:47:49.843Z,98427.82
2023-01-13T13:50:20.922Z,98429.28
2023-01-13T13:52:59.217Z,98428.58
2023-01-13T13:55:29.110Z,98427.69
2023-01-13T13:57:59.221Z,98425.15
2023-01-13T14:00:32.355Z,98424.08
2023-01-13T14:03:03.276Z,98423.73
2023-01-13T14:05:34.867Z,98428.19
2023-01-13T14:08:16.825Z,98427.59
2023-01-13T14:10:46.839Z,98426.60
2023-01-13T14:13:19.884Z,98437.55
2023-01-13T14:16:10.982Z,98434.08
2023-01-13T14:18:47.469Z,98436.33
2023-01-13T14:21:20.759Z,98434.77
2023-01-13T14:24:10.703Z,98443.20
2023-01-13T14:26:39.511Z,98442.58
2023-01-13T14:29:14.691Z,98446.46
2023-01-13T14:31:43.814Z,98440.38
2023-01-13T14:34:31.926Z,98440.83
2023-01-13T14:37:03.194Z,98440.49
2023-01-13T14:39:40.994Z,98445.50
2023-01-13T14:42:17.233Z,98445.61
2023-01-13T14:44:47.845Z,98444.69
2023-01-13T14:47:28.221Z,98447.45
2023-01-13T14:50:16.465Z,98452.38
2023-01-13T14:52:57.168Z,98453.75
2023-01-13T14:55:33.959Z,98457.60
2023-01-13T14:58:37.604Z,98456.61
2023-01-13T15:01:36.417Z,98456.02
2023-01-13T15:04:38.572Z,98457.98
2023-01-13T15:07:23.127Z,98456.63
2023-01-13T15:09:55.263Z,98460.17
2023-01-13T15:12:37.915Z,98461.49
2023-01-13T15:15:29.014Z,98461.05
2023-01-13T15:17:57.276Z,98456.93
2023-01-13T15:20:26.068Z,98457.55
2023-01-13T15:22:55.747Z,98456.69
2023-01-13T15:25:24.472Z,98454.86
2023-01-13T15:27:53.157Z,98451.22
2023-01-13T15:30:27.236Z,98458.55
2023-01-13T15:32:57.128Z,98458.65
2023-01-13T15:35:27.483Z,98463.02
2023-01-13T15:37:56.941Z,98463.27
2023-01-13T15:40:32.829Z,98462.41
2023-01-13T15:43:19.436Z,98461.87
2023-01-13T15:46:06.080Z,98466.35
2023-01-13T15:48:35.786Z,98467.64
2023-01-13T15:51:04.797Z,98469.16
2023-01-13T15:53:36.937Z,98468.73
2023-01-13T15:56:27.706Z,98469.11
2023-01-13T15:58:56.098Z,98465.39
2023-01-13T16:01:24.626Z,98463.31
2023-01-13T16:03:52.899Z,98464.77
2023-01-13T16:06:28.045Z,98465.45
2023-01-13T16:08:56.889Z,98467.02
2023-01-13T16:11:24.982Z,98469.08
2023-01-13T16:13:53.143Z,98467.78
2023-01-13T16:16:26.971Z,98472.74
2023-01-13T16:18:55.869Z,98476.89
2023-01-13T16:28:28.236Z,98483.72
2023-01-13T16:30:56.511Z,98483.62
2023-01-13T16:33:24.750Z,98488.98
2023-01-13T16:36:10.366Z,98489.95
2023-01-13T16:38:40.758Z,98493.95
2023-01-13T16:41:09.924Z,98500.83
2023-01-13T16:43:48.112Z,98505.54
2023-01-13T16:46:24.100Z,98503.75
2023-01-13T16:48:55.124Z,98515.02
2023-01-13T16:51:23.956Z,98515.30
2023-01-13T16:53:52.256Z,98515.84
2023-01-13T16:56:24.898Z,98516.55
2023-01-13T16:58:56.016Z,98520.54
2023-01-13T17:01:32.756Z,98520.95
2023-01-13T17:04:01.616Z,98522.58
2023-01-13T17:06:42.458Z,98523.77
2023-01-13T17:09:25.463Z,98517.36
2023-01-13T17:11:54.569Z,98517.86
2023-01-13T17:14:23.621Z,98518.89
2023-01-13T17:16:54.708Z,98519.06
2023-01-13T17:19:24.039Z,98516.62
2023-01-13T17:21:52.235Z,98516.27
2023-01-13T17:24:20.934Z,98518.66
2023-01-13T17:26:50.960Z,98526.80
2023-01-13T17:29:25.847Z,98528.14
2023-01-13T17:31:54.609Z,98528.31
2023-01-13T17:34:22.678Z,98527.20
2023-01-13T17:36:50.974Z,98528.36
2023-01-13T17:39:22.441Z,98530.13
2023-01-13T17:41:51.956Z,98533.23
2023-01-13T17:44:22.177Z,98536.34
2023-01-13T17:46:50.531Z,98538.48
2023-01-13T17:49:21.389Z,98537.23
2023-01-13T17:51:51.535Z,98539.90
2023-01-13T17:54:19.768Z,98542.63
2023-01-13T17:56:48.054Z,98542.14
2023-01-13T17:59:18.338Z,98544.53
2023-01-13T18:01:46.696Z,98548.11
2023-01-13T18:04:16.990Z,98552.73
2023-01-13T18:06:45.673Z,98555.48
2023-01-13T18:09:14.034Z,98560.33
2023-01-13T18:11:42.731Z,98564.69
2023-01-13T18:14:12.358Z,98566.42
2023-01-13T18:16:40.522Z,98565.84
2023-01-13T18:19:28.595Z,98577.51
2023-01-13T18:22:15.791Z,98600.35
2023-01-13T18:25:03.540Z,98593.98
2023-01-13T18:27:36.457Z,98589.19
2023-01-13T18:30:07.292Z,98585.94
2023-01-13T18:32:35.885Z,98586.27
2023-01-13T18:35:09.937Z,98577.81
2023-01-13T18:37:40.628Z,98578.63
2023-01-13T18:40:11.594Z,98572.14
2023-01-13T18:42:54.237Z,98586.96
2023-01-13T18:45:25.555Z,98593.71
2023-01-13T18:47:55.419Z,98599.38
2023-01-13T18:50:24.261Z,98597.33
2023-01-13T18:52:52.648Z,98595.55
2023-01-13T18:55:21.502Z,98601.71
2023-01-13T18:57:50.374Z,98603.93
2023-01-13T19:00:21.894Z,98606.22
2023-01-13T19:05:35.935Z,98597.69
2023-01-13T19:08:04.902Z,98599.41
2023-01-13T19:10:33.181Z,98598.18
2023-01-13T19:13:01.915Z,98599.58
2023-01-13T19:15:30.521Z,98601.88
2023-01-13T19:17:58.944Z,98608.96
2023-01-13T19:20:27.345Z,98613.20
2023-01-13T19:22:56.276Z,98618.77
2023-01-13T19:25:24.389Z,98622.87
2023-01-13T19:27:52.491Z,98624.86
2023-01-13T19:30:21.089Z,98627.21
2023-01-13T19:32:49.248Z,98630.20
2023-01-13T19:35:18.083Z,98628.18
2023-01-13T19:37:46.361Z,98625.52
2023-01-13T19:40:14.521Z,98629.70
2023-01-13T19:43:02.762Z,98638.93
2023-01-13T19:45:33.636Z,98636.97
2023-01-13T19:48:02.556Z,98640.41
2023-01-13T19:50:31.022Z,98632.30
2023-01-13T19:52:59.494Z,98637.02
2023-01-13T19:55:28.188Z,98641.63
2023-01-13T19:57:56.383Z,98641.66
2023-01-13T20:00:24.943Z,98646.06
2023-01-13T20:02:53.085Z,98651.92
2023-01-13T20:05:25.363Z,98654.52
2023-01-13T20:07:54.115Z,98650.91
2023-01-13T20:10:23.139Z,98649.40
2023-01-13T20:12:51.469Z,98653.73
2023-01-13T20:15:19.895Z,98658.02
2023-01-13T20:17:48.049Z,98656.13
2023-01-13T20:20:18.648Z,98661.70
2023-01-13T20:22:49.171Z,98664.36
2023-01-13T20:25:18.752Z,98668.09
2023-01-13T20:27:48.083Z,98674.45
2023-01-13T20:30:16.407Z,98678.98
2023-01-13T20:32:44.788Z,98679.30
2023-01-13T20:35:12.864Z,98682.05
2023-01-13T20:37:42.360Z,98685.70
2023-01-13T20:40:15.981Z,98686.00
2023-01-13T20:42:47.417Z,98685.63
2023-01-13T20:45:20.383Z,98688.70
2023-01-13T20:47:49.082Z,98692.02
2023-01-13T20:50:17.512Z,98691.41
2023-01-13T20:52:46.482Z,98698.63
2023-01-13T20:55:15.117Z,98697.48
2023-01-13T20:57:43.260Z,98702.99
2023-01-13T21:00:13.339Z,98704.66
2023-01-13T21:02:41.912Z,98702.33
2023-01-13T21:05:10.254Z,98696.90
2023-01-13T21:07:38.444Z,98695.02
2023-01-13T21:10:06.859Z,98693.23
2023-01-13T21:12:53.654Z,98699.33
2023-01-13T21:15:22.849Z,98701.77
2023-01-13T21:18:10.741Z,98703.42
2023-01-13T21:20:39.950Z,98708.04
2023-01-13T21:23:08.345Z,98714.20
2023-01-13T21:25:39.752Z,98720.84
2023-01-13T21:28:11.059Z,98728.53
2023-01-13T21:30:39.418Z,98737.56
2023-01-13T21:33:08.010Z,98735.06
2023-01-13T21:35:39.607Z,98740.64
2023-01-13T21:38:07.778Z,98740.55
2023-01-13T21:40:36.013Z,98742.86
2023-01-13T21:43:33.296Z,98740.16
2023-01-13T21:46:19.799Z,98741.95
2023-01-13T21:48:47.836Z,98740.23
2023-01-13T21:51:15.859Z,98740.88
2023-01-13T21:53:44.087Z,98740.46
2023-01-13T21:56:12.588Z,98741.43
2023-01-13T21:58:40.841Z,98742.83
2023-01-13T22:01:10.167Z,98738.41
2023-01-13T22:03:59.693Z,98733.50
2023-01-13T22:06:28.261Z,98738.97
2023-01-13T22:09:00.974Z,98745.80
2023-01-13T22:11:29.044Z,98748.79
2023-01-13T22:14:07.193Z,98748.17
2023-01-13T22:16:42.096Z,98747.11
2023-01-13T22:19:11.545Z,98748.74
2023-01-13T22:21:40.267Z,98753.16
2023-01-13T22:24:09.475Z,98753.69
2023-01-13T22:26:37.648Z,98754.83
2023-01-13T22:29:05.854Z,98760.70
2023-01-13T22:31:34.161Z,98757.88
2023-01-13T22:34:02.253Z,98755.86
2023-01-13T22:36:30.336Z,98757.83
2023-01-13T22:39:00.576Z,98761.70
2023-01-13T22:41:29.021Z,98771.41
2023-01-13T22:43:57.421Z,98767.41
2023-01-13T22:46:25.516Z,98768.89
2023-01-13T22:48:55.873Z,98772.84
2023-01-13T22:51:24.130Z,98774.05
2023-01-13T22:53:52.241Z,98772.52
2023-01-13T22:56:22.701Z,98773.46
2023-01-13T22:58:55.282Z,98771.45
2023-01-13T23:01:24.364Z,98771.98
2023-01-13T23:03:52.612Z,98771.98
2023-01-13T23:06:23.271Z,98779.80
2023-01-13T23:08:52.041Z,98780.09
2023-01-13T23:11:23.492Z,98779.70
2023-01-13T23:13:58.173Z,98781.39
2023-01-13T23:16:27.957Z,98777.89
2023-01-13T23:18:56.700Z,98780.73
2023-01-13T23:21:30.995Z,98782.11
2023-01-13T23:24:00.295Z,98782.84
2023-01-13T23:26:29.514Z,98790.18
2023-01-13T23:29:07.384Z,98789.77
2023-01-13T23:31:35.495Z,98791.79
2023-01-13T23:34:03.560Z,98792.24
2023-01-13T23:36:32.225Z,98791.94
2023-01-13T23:39:00.266Z,98795.23
2023-01-13T23:41:28.651Z,98802.66
2023-01-13T23:44:00.847Z,98800.48
2023-01-13T23:46:31.289Z,98811.44
2023-01-13T23:49:00.819Z,98809.90
2023-01-13T23:51:30.214Z,98818.29
2023-01-13T23:53:59.201Z,98808.48
2023-01-13T23:56:29.852Z,98813.06
2023-01-13T23:58:58.189Z,98820.35
